Time;durP1;ratioP1;P1;durP2;ratioP2;P2;SDS_P1;SDS_P2;PMS_P1;PMS_P2;Temp;Humidity;BMP_temperature;BMP_pressure;BME280_temperature;BME280_humidity;BME280_pressure;Samples;Min_cycle;Max_cycle;Signal;HPM_P1;HPM_P2
2023/05/28 00:00:48;;;;;;;5.37;4.10;;;;;;;;;;5078939;28;20223;-63
2023/05/28 00:03:19;;;;;;;3.90;3.60;;;;;;;;;;5078656;28;20209;-63
2023/05/28 00:05:47;;;;;;;5.60;4.10;;;;;;;;;;5078425;28;20629;-64
2023/05/28 00:08:15;;;;;;;7.17;3.83;;;;;;;;;;5078869;28;20204;-64
2023/05/28 00:10:44;;;;;;;8.33;4.20;;;;;;;;;;5078213;28;20692;-64
2023/05/28 00:13:12;;;;;;;4.20;3.87;;;;;;;;;;5078559;28;20208;-65
2023/05/28 00:15:41;;;;;;;6.00;4.43;;;;;;;;;;5078162;28;20226;-64
2023/05/28 00:18:11;;;;;;;7.03;4.20;;;;;;;;;;5078793;28;20204;-64
2023/05/28 00:20:39;;;;;;;8.00;3.90;;;;;;;;;;5078518;28;20282;-64
2023/05/28 00:23:08;;;;;;;4.57;4.10;;;;;;;;;;5078551;28;20210;-63
2023/05/28 00:25:36;;;;;;;4.87;3.67;;;;;;;;;;5077599;28;20232;-63
2023/05/28 00:28:05;;;;;;;6.47;3.87;;;;;;;;;;5078357;28;20693;-65
2023/05/28 00:30:35;;;;;;;5.93;4.00;;;;;;;;;;5078471;28;20286;-65
2023/05/28 00:33:05;;;;;;;5.27;4.37;;;;;;;;;;5078317;28;20259;-64
2023/05/28 00:35:33;;;;;;;10.20;4.37;;;;;;;;;;5078124;28;20769;-64
2023/05/28 00:38:01;;;;;;;5.27;3.80;;;;;;;;;;5078157;28;20247;-65
2023/05/28 00:40:29;;;;;;;5.33;4.03;;;;;;;;;;5077803;28;20667;-65
2023/05/28 00:42:57;;;;;;;4.87;4.33;;;;;;;;;;5077274;28;20210;-64
2023/05/28 00:45:26;;;;;;;4.20;3.80;;;;;;;;;;5077960;28;20595;-65
2023/05/28 00:47:54;;;;;;;7.83;4.47;;;;;;;;;;5078124;28;20216;-64
2023/05/28 00:50:25;;;;;;;6.70;4.13;;;;;;;;;;5077931;28;20215;-64
2023/05/28 00:52:54;;;;;;;6.30;4.60;;;;;;;;;;5077971;28;20634;-64
2023/05/28 00:55:22;;;;;;;7.87;4.43;;;;;;;;;;5077894;28;20232;-64
2023/05/28 00:57:54;;;;;;;5.27;4.20;;;;;;;;;;5078065;28;20232;-64
2023/05/28 01:00:22;;;;;;;5.77;4.57;;;;;;;;;;5077741;28;20235;-63
2023/05/28 01:02:50;;;;;;;6.97;4.73;;;;;;;;;;5077787;28;20545;-64
2023/05/28 01:05:19;;;;;;;6.93;4.70;;;;;;;;;;5078098;28;20235;-65
2023/05/28 01:07:48;;;;;;;6.90;4.80;;;;;;;;;;5077641;28;20205;-64
2023/05/28 01:10:16;;;;;;;4.37;3.97;;;;;;;;;;5077595;28;20295;-65
2023/05/28 01:12:45;;;;;;;7.40;4.50;;;;;;;;;;5077717;28;20241;-63
2023/05/28 01:15:14;;;;;;;6.93;4.47;;;;;;;;;;5077954;28;20312;-63
2023/05/28 01:17:42;;;;;;;6.87;5.10;;;;;;;;;;5077645;28;20297;-63
2023/05/28 01:20:13;;;;;;;10.27;4.90;;;;;;;;;;5077843;28;20586;-64
2023/05/28 01:22:47;;;;;;;6.63;4.33;;;;;;;;;;5077926;28;20233;-63
2023/05/28 01:25:18;;;;;;;8.33;4.63;;;;;;;;;;5077339;28;20311;-64
2023/05/28 01:27:46;;;;;;;5.50;4.50;;;;;;;;;;5077873;28;20243;-64
2023/05/28 01:30:14;;;;;;;5.53;4.53;;;;;;;;;;5077898;28;20210;-63
2023/05/28 01:32:42;;;;;;;5.03;4.10;;;;;;;;;;5077794;28;20246;-64
2023/05/28 01:35:11;;;;;;;6.37;4.40;;;;;;;;;;5077572;28;20225;-63
2023/05/28 01:37:41;;;;;;;6.27;4.93;;;;;;;;;;5077791;28;20260;-63
2023/05/28 01:40:10;;;;;;;7.03;4.70;;;;;;;;;;5070128;28;20663;-64
2023/05/28 01:42:40;;;;;;;5.07;4.57;;;;;;;;;;5074252;28;20271;-64
2023/05/28 01:45:10;;;;;;;8.97;5.40;;;;;;;;;;5077375;28;20706;-64
2023/05/28 01:47:38;;;;;;;6.07;4.43;;;;;;;;;;5077555;28;20207;-65
2023/05/28 01:50:07;;;;;;;6.60;5.40;;;;;;;;;;5077442;28;20217;-65
2023/05/28 01:52:35;;;;;;;5.43;4.70;;;;;;;;;;5072333;28;20609;-63
2023/05/28 01:55:04;;;;;;;5.90;4.83;;;;;;;;;;5077180;28;20741;-64
2023/05/28 01:57:32;;;;;;;5.70;4.77;;;;;;;;;;5081515;28;20228;-63
2023/05/28 02:00:03;;;;;;;6.97;4.80;;;;;;;;;;5081546;28;20212;-63
2023/05/28 02:02:31;;;;;;;5.90;4.47;;;;;;;;;;5081048;28;20274;-64
2023/05/28 02:05:00;;;;;;;6.53;4.60;;;;;;;;;;5081121;28;20220;-63
2023/05/28 02:07:28;;;;;;;8.73;5.60;;;;;;;;;;5081385;28;20235;-64
2023/05/28 02:09:56;;;;;;;6.27;4.83;;;;;;;;;;5080945;28;20206;-64
2023/05/28 02:12:24;;;;;;;7.17;4.83;;;;;;;;;;5080913;28;20212;-64
2023/05/28 02:14:52;;;;;;;7.00;4.77;;;;;;;;;;5081115;28;20291;-64
2023/05/28 02:17:22;;;;;;;6.73;4.60;;;;;;;;;;5080879;28;20226;-64
2023/05/28 02:19:50;;;;;;;5.57;4.90;;;;;;;;;;5081016;28;20203;-64
2023/05/28 02:22:18;;;;;;;4.93;4.53;;;;;;;;;;5080925;28;20212;-64
2023/05/28 02:24:47;;;;;;;9.27;4.70;;;;;;;;;;5080393;28;20207;-65
2023/05/28 02:27:16;;;;;;;6.53;4.50;;;;;;;;;;5080942;28;20204;-64
2023/05/28 02:29:45;;;;;;;5.90;4.20;;;;;;;;;;5080688;28;20214;-63
2023/05/28 02:32:13;;;;;;;6.57;4.27;;;;;;;;;;5080619;28;20293;-64
2023/05/28 02:34:43;;;;;;;7.33;4.90;;;;;;;;;;5080595;28;20203;-63
2023/05/28 02:37:11;;;;;;;10.57;4.97;;;;;;;;;;5080832;28;20318;-64
2023/05/28 02:39:39;;;;;;;8.50;4.50;;;;;;;;;;5080056;28;20666;-64
2023/05/28 02:42:08;;;;;;;7.60;4.73;;;;;;;;;;5080548;28;20212;-64
2023/05/28 02:44:36;;;;;;;6.07;4.87;;;;;;;;;;5080333;28;20214;-64
2023/05/28 02:47:04;;;;;;;6.40;5.27;;;;;;;;;;5080349;28;20230;-64
2023/05/28 02:49:33;;;;;;;6.83;4.67;;;;;;;;;;5080557;28;20242;-64
2023/05/28 02:52:02;;;;;;;5.87;5.27;;;;;;;;;;5080328;28;20573;-64
2023/05/28 02:54:31;;;;;;;4.70;4.30;;;;;;;;;;5079696;28;20211;-64
2023/05/28 02:56:59;;;;;;;6.93;4.40;;;;;;;;;;5080237;28;20228;-62
2023/05/28 02:59:27;;;;;;;8.10;4.70;;;;;;;;;;5080433;28;20205;-63
2023/05/28 03:01:55;;;;;;;5.73;5.00;;;;;;;;;;5079926;28;20359;-63
2023/05/28 03:04:24;;;;;;;7.93;4.90;;;;;;;;;;5080073;28;20568;-63
2023/05/28 03:06:54;;;;;;;7.20;5.23;;;;;;;;;;5079093;28;20281;-62
2023/05/28 03:09:24;;;;;;;5.43;4.27;;;;;;;;;;5079859;28;20208;-63
2023/05/28 03:11:52;;;;;;;5.70;4.47;;;;;;;;;;5079966;28;20645;-62
2023/05/28 03:14:20;;;;;;;6.20;4.73;;;;;;;;;;5080170;28;20234;-61
2023/05/28 03:16:48;;;;;;;6.40;4.93;;;;;;;;;;5080245;28;20233;-62
2023/05/28 03:19:17;;;;;;;6.37;4.70;;;;;;;;;;5079972;28;20229;-61
2023/05/28 03:21:45;;;;;;;9.50;4.90;;;;;;;;;;5080109;28;20203;-61
2023/05/28 03:24:13;;;;;;;8.67;5.30;;;;;;;;;;5079330;28;20241;-61
2023/05/28 03:26:42;;;;;;;8.83;4.97;;;;;;;;;;5079820;28;20225;-62
2023/05/28 03:29:11;;;;;;;8.30;5.17;;;;;;;;;;5079831;28;20213;-62
2023/05/28 03:31:44;;;;;;;6.13;5.43;;;;;;;;;;5079867;28;20203;-62
2023/05/28 03:34:12;;;;;;;8.27;4.80;;;;;;;;;;5079494;28;20577;-61
2023/05/28 03:36:41;;;;;;;7.80;4.97;;;;;;;;;;5079728;28;20234;-61
2023/05/28 03:39:09;;;;;;;6.70;4.83;;;;;;;;;;5079171;28;20230;-62
2023/05/28 03:41:40;;;;;;;6.53;4.60;;;;;;;;;;5079406;28;20634;-61
2023/05/28 03:44:09;;;;;;;6.73;5.70;;;;;;;;;;5079350;28;20567;-62
2023/05/28 03:46:38;;;;;;;7.37;4.80;;;;;;;;;;5079411;28;20317;-63
2023/05/28 03:49:06;;;;;;;5.93;5.33;;;;;;;;;;5079373;28;20234;-62
2023/05/28 03:51:34;;;;;;;7.77;4.73;;;;;;;;;;5079335;28;20234;-63
2023/05/28 03:54:02;;;;;;;10.57;4.93;;;;;;;;;;5076316;28;20273;-62
2023/05/28 03:56:33;;;;;;;6.87;4.60;;;;;;;;;;5077606;28;20231;-63
2023/05/28 03:59:01;;;;;;;5.33;4.63;;;;;;;;;;5079221;28;20236;-61
2023/05/28 04:01:31;;;;;;;11.00;5.20;;;;;;;;;;5078743;28;20238;-61
2023/05/28 04:03:59;;;;;;;6.90;5.83;;;;;;;;;;5078926;28;20638;-61
2023/05/28 04:06:27;;;;;;;10.83;6.10;;;;;;;;;;5076292;28;20226;-61
2023/05/28 04:08:56;;;;;;;7.77;5.00;;;;;;;;;;5070825;28;20218;-61
2023/05/28 04:11:24;;;;;;;8.77;4.93;;;;;;;;;;5078901;28;20284;-61
2023/05/28 04:13:53;;;;;;;9.10;5.13;;;;;;;;;;5079089;28;20289;-61
2023/05/28 04:16:22;;;;;;;8.13;5.33;;;;;;;;;;5078514;28;20230;-61
2023/05/28 04:18:52;;;;;;;9.03;5.27;;;;;;;;;;5078704;28;20398;-61
2023/05/28 04:21:22;;;;;;;7.67;6.10;;;;;;;;;;5078871;28;20264;-61
2023/05/28 04:23:51;;;;;;;8.77;5.63;;;;;;;;;;5078448;28;20574;-61
2023/05/28 04:26:22;;;;;;;7.70;5.37;;;;;;;;;;5078229;28;20226;-61
2023/05/28 04:28:50;;;;;;;7.27;5.33;;;;;;;;;;5078417;28;20206;-61
2023/05/28 04:31:18;;;;;;;7.57;5.53;;;;;;;;;;5078764;28;20206;-61
2023/05/28 04:33:47;;;;;;;8.63;5.27;;;;;;;;;;5078735;28;20206;-61
2023/05/28 04:36:16;;;;;;;12.23;5.77;;;;;;;;;;5078455;28;20309;-61
2023/05/28 04:38:45;;;;;;;9.03;5.73;;;;;;;;;;5078015;28;20248;-61
2023/05/28 04:41:14;;;;;;;8.50;5.43;;;;;;;;;;5078079;28;20230;-60
2023/05/28 04:43:43;;;;;;;7.20;5.47;;;;;;;;;;5078114;28;20556;-62
2023/05/28 04:46:11;;;;;;;7.67;4.93;;;;;;;;;;5078241;28;20226;-64
2023/05/28 04:48:39;;;;;;;10.17;5.93;;;;;;;;;;5078239;28;20287;-65
2023/05/28 04:51:08;;;;;;;12.87;5.87;;;;;;;;;;5077316;28;20202;-65
2023/05/28 04:53:43;;;;;;;10.33;5.60;;;;;;;;;;5077711;28;20212;-64
2023/05/28 04:56:11;;;;;;;7.87;4.73;;;;;;;;;;5077660;28;20225;-65
2023/05/28 04:58:39;;;;;;;9.57;5.50;;;;;;;;;;5076980;28;20309;-64
2023/05/28 05:01:08;;;;;;;10.60;5.73;;;;;;;;;;5076171;28;20276;-65
2023/05/28 05:03:37;;;;;;;8.60;5.63;;;;;;;;;;5077485;28;20206;-65
2023/05/28 05:06:06;;;;;;;7.10;5.43;;;;;;;;;;5074279;28;20599;-65
2023/05/28 05:08:35;;;;;;;7.87;5.67;;;;;;;;;;5075670;28;20254;-65
2023/05/28 05:11:06;;;;;;;8.37;5.43;;;;;;;;;;5077453;28;20209;-65
2023/05/28 05:13:42;;;;;;;8.93;5.70;;;;;;;;;;5079722;28;20270;-65
2023/05/28 05:16:13;;;;;;;10.57;5.33;;;;;;;;;;5077844;28;20236;-65
2023/05/28 05:18:42;;;;;;;7.13;5.13;;;;;;;;;;5077285;28;20220;-65
2023/05/28 05:21:12;;;;;;;7.13;5.60;;;;;;;;;;5077297;28;20568;-65
2023/05/28 05:23:41;;;;;;;7.60;5.27;;;;;;;;;;5077505;28;20201;-65
2023/05/28 05:26:12;;;;;;;9.87;5.27;;;;;;;;;;5077256;28;20307;-65
2023/05/28 05:28:41;;;;;;;7.63;5.37;;;;;;;;;;5074503;28;20228;-65
2023/05/28 05:31:11;;;;;;;6.97;5.37;;;;;;;;;;5077323;28;20657;-65
2023/05/28 05:33:40;;;;;;;8.30;5.17;;;;;;;;;;5075099;28;20281;-65
2023/05/28 05:36:09;;;;;;;7.13;4.90;;;;;;;;;;5076981;28;20260;-65
2023/05/28 05:38:37;;;;;;;11.77;5.40;;;;;;;;;;5077233;28;20212;-65
2023/05/28 05:41:06;;;;;;;8.07;5.33;;;;;;;;;;5077087;28;20213;-65
2023/05/28 05:43:35;;;;;;;7.63;5.63;;;;;;;;;;5077428;28;20211;-65
2023/05/28 05:46:03;;;;;;;11.93;5.33;;;;;;;;;;5077445;28;20258;-65
2023/05/28 05:48:32;;;;;;;6.80;5.00;;;;;;;;;;5078007;28;20213;-65
2023/05/28 05:51:02;;;;;;;9.00;5.20;;;;;;;;;;5077675;28;20289;-65
2023/05/28 05:53:30;;;;;;;8.63;5.80;;;;;;;;;;5077144;28;20207;-65
2023/05/28 05:55:58;;;;;;;6.97;5.30;;;;;;;;;;5077085;28;20256;-65
2023/05/28 05:58:26;;;;;;;7.83;5.27;;;;;;;;;;5077199;28;20218;-65
2023/05/28 06:00:56;;;;;;;7.53;5.17;;;;;;;;;;5077406;28;20239;-65
2023/05/28 06:03:24;;;;;;;8.43;5.10;;;;;;;;;;5077169;28;20671;-66
2023/05/28 06:05:53;;;;;;;12.17;5.87;;;;;;;;;;5076814;28;20233;-66
2023/05/28 06:08:21;;;;;;;6.93;5.30;;;;;;;;;;5067342;28;20613;-66
2023/05/28 06:10:49;;;;;;;8.23;5.50;;;;;;;;;;5075098;28;20747;-66
2023/05/28 06:13:17;;;;;;;6.97;5.43;;;;;;;;;;5077112;28;20235;-65
2023/05/28 06:15:45;;;;;;;6.87;4.77;;;;;;;;;;5076925;28;20767;-65
2023/05/28 06:18:15;;;;;;;11.93;6.30;;;;;;;;;;5070926;28;20269;-65
2023/05/28 06:20:43;;;;;;;6.97;5.17;;;;;;;;;;5075827;28;20271;-66
2023/05/28 06:23:12;;;;;;;7.10;5.87;;;;;;;;;;5074911;28;20241;-66
2023/05/28 06:25:40;;;;;;;14.27;6.10;;;;;;;;;;5075384;28;20250;-65
2023/05/28 06:28:08;;;;;;;7.50;5.27;;;;;;;;;;5075953;28;20210;-66
2023/05/28 06:30:36;;;;;;;8.93;5.73;;;;;;;;;;5075864;28;20190;-64
2023/05/28 06:33:04;;;;;;;6.37;5.27;;;;;;;;;;5075085;28;20242;-65
2023/05/28 06:35:34;;;;;;;6.93;5.17;;;;;;;;;;5076549;28;20717;-65
2023/05/28 06:38:03;;;;;;;6.77;5.33;;;;;;;;;;5076251;28;20685;-64
2023/05/28 06:40:31;;;;;;;6.90;5.40;;;;;;;;;;5076455;28;20223;-64
2023/05/28 06:43:01;;;;;;;8.83;5.33;;;;;;;;;;5080183;28;20198;-64
2023/05/28 06:45:29;;;;;;;9.20;5.70;;;;;;;;;;5080550;28;20259;-64
2023/05/28 06:47:57;;;;;;;8.07;5.07;;;;;;;;;;5080706;28;20240;-64
2023/05/28 06:50:25;;;;;;;8.93;5.80;;;;;;;;;;5080546;28;20201;-64
2023/05/28 06:52:56;;;;;;;11.17;5.37;;;;;;;;;;5080492;28;20208;-64
2023/05/28 06:55:24;;;;;;;9.93;5.63;;;;;;;;;;5080438;28;20225;-65
2023/05/28 06:57:52;;;;;;;8.70;5.43;;;;;;;;;;5080668;28;20221;-65
2023/05/28 07:00:21;;;;;;;7.73;5.50;;;;;;;;;;5080253;28;20254;-65
2023/05/28 07:02:49;;;;;;;11.33;5.43;;;;;;;;;;5080522;28;20206;-65
2023/05/28 07:05:18;;;;;;;8.10;5.20;;;;;;;;;;5080032;28;20252;-64
2023/05/28 07:07:46;;;;;;;8.23;5.60;;;;;;;;;;5080297;28;20214;-65
2023/05/28 07:10:16;;;;;;;6.73;5.43;;;;;;;;;;5079707;28;20208;-66
2023/05/28 07:12:44;;;;;;;5.60;4.30;;;;;;;;;;5079581;28;20213;-65
2023/05/28 07:15:12;;;;;;;9.77;4.90;;;;;;;;;;5078221;28;20563;-65
2023/05/28 07:17:40;;;;;;;5.80;5.23;;;;;;;;;;5078481;28;20205;-65
2023/05/28 07:20:09;;;;;;;8.20;5.63;;;;;;;;;;5078440;28;20702;-66
2023/05/28 07:22:37;;;;;;;5.83;5.20;;;;;;;;;;5076346;28;20199;-66
2023/05/28 07:25:07;;;;;;;8.17;5.27;;;;;;;;;;5078042;28;20643;-66
2023/05/28 07:27:36;;;;;;;6.27;5.33;;;;;;;;;;5078961;28;20268;-66
2023/05/28 07:30:04;;;;;;;10.00;5.43;;;;;;;;;;5078701;28;20692;-66
2023/05/28 07:32:33;;;;;;;10.33;5.33;;;;;;;;;;5078945;28;20212;-66
2023/05/28 07:35:01;;;;;;;6.30;5.07;;;;;;;;;;5078441;28;20236;-66
2023/05/28 07:37:29;;;;;;;7.83;5.37;;;;;;;;;;5078887;28;20300;-66
2023/05/28 07:39:57;;;;;;;16.83;5.33;;;;;;;;;;5078125;28;20695;-66
2023/05/28 07:42:25;;;;;;;6.77;5.10;;;;;;;;;;5078649;28;20300;-65
2023/05/28 07:44:55;;;;;;;8.20;5.50;;;;;;;;;;5078514;28;20240;-64
2023/05/28 07:47:23;;;;;;;8.57;4.80;;;;;;;;;;5078545;28;20300;-66
2023/05/28 07:49:51;;;;;;;8.47;5.53;;;;;;;;;;5078645;28;20203;-66
2023/05/28 07:52:20;;;;;;;8.90;5.23;;;;;;;;;;5077263;28;20204;-65
2023/05/28 07:54:49;;;;;;;11.50;5.90;;;;;;;;;;5078240;28;20229;-66
2023/05/28 07:57:17;;;;;;;9.40;5.93;;;;;;;;;;5079156;28;20236;-65
2023/05/28 07:59:45;;;;;;;8.90;5.50;;;;;;;;;;5076543;28;20284;-65
2023/05/28 08:02:14;;;;;;;6.37;4.77;;;;;;;;;;5078621;28;20232;-65
2023/05/28 08:04:43;;;;;;;7.43;5.10;;;;;;;;;;5077734;28;20258;-65
2023/05/28 08:07:12;;;;;;;9.90;5.50;;;;;;;;;;5078317;28;20315;-65
2023/05/28 08:09:41;;;;;;;7.97;4.97;;;;;;;;;;5076132;28;20197;-66
2023/05/28 08:12:10;;;;;;;9.07;5.23;;;;;;;;;;5078301;28;20212;-66
2023/05/28 08:14:38;;;;;;;8.00;5.20;;;;;;;;;;5075811;28;20234;-66
2023/05/28 08:17:06;;;;;;;9.43;5.37;;;;;;;;;;5076695;28;20695;-67
2023/05/28 08:19:36;;;;;;;8.23;5.00;;;;;;;;;;5073253;28;20205;-66
2023/05/28 08:22:04;;;;;;;8.23;5.27;;;;;;;;;;5075180;28;20229;-66
2023/05/28 08:24:33;;;;;;;7.33;5.20;;;;;;;;;;5074957;28;20193;-65
2023/05/28 08:27:01;;;;;;;7.73;5.73;;;;;;;;;;5077954;28;20229;-65
2023/05/28 08:29:30;;;;;;;9.50;5.47;;;;;;;;;;5078037;28;20205;-65
2023/05/28 08:31:58;;;;;;;10.07;6.13;;;;;;;;;;5076384;28;20194;-65
2023/05/28 08:34:27;;;;;;;13.70;5.97;;;;;;;;;;5077911;28;20219;-65
2023/05/28 08:36:57;;;;;;;9.13;5.67;;;;;;;;;;5078288;28;20230;-65
2023/05/28 08:39:26;;;;;;;7.53;5.83;;;;;;;;;;5078108;28;20238;-65
2023/05/28 08:41:55;;;;;;;6.37;5.17;;;;;;;;;;5078016;28;20627;-65
2023/05/28 08:44:23;;;;;;;9.23;5.60;;;;;;;;;;5078125;28;20218;-66
2023/05/28 08:46:52;;;;;;;7.97;5.70;;;;;;;;;;5078196;28;20244;-65
2023/05/28 08:49:21;;;;;;;9.87;6.77;;;;;;;;;;5078055;28;20217;-65
2023/05/28 08:51:54;;;;;;;8.23;6.37;;;;;;;;;;5077906;28;20210;-65
2023/05/28 08:54:23;;;;;;;9.90;6.03;;;;;;;;;;5077718;28;20293;-65
2023/05/28 08:56:51;;;;;;;9.20;7.07;;;;;;;;;;5077885;28;20718;-66
2023/05/28 08:59:20;;;;;;;11.60;6.57;;;;;;;;;;5077457;28;20203;-65
2023/05/28 09:01:50;;;;;;;11.10;6.07;;;;;;;;;;5077347;28;20229;-65
2023/05/28 09:04:18;;;;;;;8.07;5.40;;;;;;;;;;5076232;28;20205;-64
2023/05/28 09:06:46;;;;;;;11.43;5.87;;;;;;;;;;5077329;28;20598;-64
2023/05/28 09:09:14;;;;;;;8.53;5.27;;;;;;;;;;5074491;28;20200;-64
2023/05/28 09:11:44;;;;;;;6.17;5.37;;;;;;;;;;5077620;28;20198;-65
2023/05/28 09:14:13;;;;;;;8.37;5.80;;;;;;;;;;5077178;28;20543;-64
2023/05/28 09:16:42;;;;;;;9.30;5.73;;;;;;;;;;5077086;28;20303;-64
2023/05/28 09:19:10;;;;;;;10.47;6.40;;;;;;;;;;5077413;28;20202;-65
2023/05/28 09:21:39;;;;;;;8.73;5.80;;;;;;;;;;5077441;28;20311;-65
2023/05/28 09:24:07;;;;;;;8.20;5.60;;;;;;;;;;5066746;28;20205;-65
2023/05/28 09:26:35;;;;;;;8.50;5.93;;;;;;;;;;5077841;28;20231;-66
2023/05/28 09:29:12;;;;;;;8.37;5.57;;;;;;;;;;5076850;28;20240;-65
2023/05/28 09:31:40;;;;;;;9.37;5.40;;;;;;;;;;5071926;28;20196;-65
2023/05/28 09:34:08;;;;;;;8.87;6.07;;;;;;;;;;5076976;28;20227;-65
2023/05/28 09:36:37;;;;;;;6.80;5.40;;;;;;;;;;5074317;28;20218;-66
2023/05/28 09:39:08;;;;;;;7.87;6.10;;;;;;;;;;5076881;28;20233;-64
2023/05/28 09:41:44;;;;;;;8.77;5.30;;;;;;;;;;5076955;28;20692;-66
2023/05/28 09:44:13;;;;;;;8.03;5.33;;;;;;;;;;5077157;28;20212;-66
2023/05/28 09:46:47;;;;;;;9.90;5.47;;;;;;;;;;5076994;28;20224;-66
2023/05/28 09:49:15;;;;;;;10.27;6.83;;;;;;;;;;5077141;28;20211;-66
2023/05/28 09:51:44;;;;;;;7.63;5.57;;;;;;;;;;5077255;28;20212;-65
2023/05/28 09:54:14;;;;;;;12.63;6.50;;;;;;;;;;5076922;28;20227;-66
2023/05/28 09:56:43;;;;;;;10.30;5.37;;;;;;;;;;5077190;28;20316;-65
2023/05/28 09:59:14;;;;;;;10.63;5.77;;;;;;;;;;5077011;28;20547;-65
2023/05/28 10:01:47;;;;;;;9.83;5.47;;;;;;;;;;5077003;28;20570;-65
2023/05/28 10:04:19;;;;;;;11.47;5.90;;;;;;;;;;5076257;28;20556;-65
2023/05/28 10:06:47;;;;;;;6.43;5.23;;;;;;;;;;5074963;28;20214;-65
2023/05/28 10:09:16;;;;;;;8.90;5.93;;;;;;;;;;5078835;28;20213;-65
2023/05/28 10:11:48;;;;;;;8.60;5.50;;;;;;;;;;5076803;28;20194;-64
2023/05/28 10:14:21;;;;;;;5.73;5.23;;;;;;;;;;5076348;28;20205;-64
2023/05/28 10:16:53;;;;;;;7.27;5.57;;;;;;;;;;5079142;28;20217;-64
2023/05/28 10:19:22;;;;;;;7.30;5.00;;;;;;;;;;5079783;28;20215;-64
2023/05/28 10:21:52;;;;;;;7.87;5.33;;;;;;;;;;5079108;28;20221;-65
2023/05/28 10:24:20;;;;;;;9.37;6.00;;;;;;;;;;5079088;28;20201;-65
2023/05/28 10:26:48;;;;;;;11.63;5.40;;;;;;;;;;5079263;28;20231;-65
2023/05/28 10:29:18;;;;;;;7.07;5.40;;;;;;;;;;5079269;28;20216;-64
2023/05/28 10:31:57;;;;;;;7.17;5.57;;;;;;;;;;5078508;28;20623;-65
2023/05/28 10:34:41;;;;;;;9.87;5.80;;;;;;;;;;5078181;28;20210;-65
2023/05/28 10:37:13;;;;;;;7.37;4.83;;;;;;;;;;5078411;28;20224;-64
2023/05/28 10:39:42;;;;;;;7.53;5.40;;;;;;;;;;5079823;28;20200;-65
2023/05/28 10:42:15;;;;;;;6.83;5.03;;;;;;;;;;5080031;28;20310;-64
2023/05/28 10:44:51;;;;;;;8.60;5.40;;;;;;;;;;5080141;28;20204;-63
2023/05/28 10:47:19;;;;;;;7.67;5.03;;;;;;;;;;5079723;28;20283;-63
2023/05/28 10:50:01;;;;;;;6.60;5.00;;;;;;;;;;5078836;28;20259;-63
2023/05/28 10:52:43;;;;;;;6.27;5.10;;;;;;;;;;5078710;28;20223;-62
2023/05/28 10:55:12;;;;;;;6.27;5.63;;;;;;;;;;5078244;28;20225;-63
2023/05/28 10:57:41;;;;;;;6.97;5.67;;;;;;;;;;5079627;28;20558;-63
2023/05/28 11:00:13;;;;;;;8.00;5.13;;;;;;;;;;5079235;28;20214;-62
2023/05/28 11:02:44;;;;;;;6.33;5.23;;;;;;;;;;5076701;28;20241;-63
2023/05/28 11:05:12;;;;;;;9.40;5.00;;;;;;;;;;5077963;28;20590;-63
2023/05/28 11:07:42;;;;;;;6.77;4.77;;;;;;;;;;5079302;28;20195;-63
2023/05/28 11:10:12;;;;;;;8.37;5.57;;;;;;;;;;5078688;28;20209;-63
2023/05/28 11:12:41;;;;;;;9.03;4.73;;;;;;;;;;5077211;28;20233;-63
2023/05/28 11:15:16;;;;;;;7.30;5.93;;;;;;;;;;5078587;28;20229;-63
2023/05/28 11:17:45;;;;;;;7.27;5.07;;;;;;;;;;5077259;28;20220;-63
2023/05/28 11:20:17;;;;;;;4.30;3.97;;;;;;;;;;5078921;28;20702;-64
2023/05/28 11:22:46;;;;;;;9.30;6.23;;;;;;;;;;5079094;28;20271;-63
2023/05/28 11:25:14;;;;;;;11.33;7.57;;;;;;;;;;5078644;28;20225;-63
2023/05/28 11:27:44;;;;;;;8.80;6.70;;;;;;;;;;5078543;28;20213;-63
2023/05/28 11:30:15;;;;;;;7.70;5.07;;;;;;;;;;5079439;28;20200;-63
2023/05/28 11:32:44;;;;;;;6.90;5.87;;;;;;;;;;5079131;28;20227;-63
2023/05/28 11:35:13;;;;;;;5.07;4.17;;;;;;;;;;5078860;28;20228;-63
2023/05/28 11:37:42;;;;;;;5.30;4.77;;;;;;;;;;5078698;28;20642;-63
2023/05/28 11:40:11;;;;;;;7.10;4.97;;;;;;;;;;5078792;28;20207;-64
2023/05/28 11:42:40;;;;;;;9.40;5.37;;;;;;;;;;5079090;28;20243;-63
2023/05/28 11:45:09;;;;;;;5.80;4.53;;;;;;;;;;5079528;28;20226;-64
2023/05/28 11:47:39;;;;;;;6.80;4.87;;;;;;;;;;5079098;28;20257;-64
2023/05/28 11:50:07;;;;;;;6.23;5.03;;;;;;;;;;5079171;28;20702;-63
2023/05/28 11:52:36;;;;;;;6.77;4.67;;;;;;;;;;5078992;28;20227;-64
2023/05/28 11:55:04;;;;;;;5.30;4.80;;;;;;;;;;5078879;28;20219;-64
2023/05/28 11:57:36;;;;;;;6.67;4.63;;;;;;;;;;5078930;28;20236;-64
2023/05/28 12:00:10;;;;;;;8.77;5.37;;;;;;;;;;5079030;28;20272;-64
2023/05/28 12:02:45;;;;;;;5.57;4.70;;;;;;;;;;5078679;28;20251;-64
2023/05/28 12:05:14;;;;;;;8.00;5.50;;;;;;;;;;5078847;28;20569;-64
2023/05/28 12:07:44;;;;;;;9.63;5.13;;;;;;;;;;5078696;28;20272;-63
2023/05/28 12:10:13;;;;;;;8.37;5.40;;;;;;;;;;5078412;28;20216;-64
2023/05/28 12:12:43;;;;;;;5.60;5.10;;;;;;;;;;5078628;28;20209;-64
2023/05/28 12:15:11;;;;;;;6.97;5.17;;;;;;;;;;5078840;28;20319;-64
2023/05/28 12:17:40;;;;;;;7.93;4.50;;;;;;;;;;5077567;28;20212;-64
2023/05/28 12:20:28;;;;;;;6.60;4.90;;;;;;;;;;5076290;28;20264;-64
2023/05/28 12:23:07;;;;;;;7.83;4.10;;;;;;;;;;5078423;28;20301;-64
2023/05/28 12:25:39;;;;;;;5.67;4.30;;;;;;;;;;5078148;28;20224;-64
2023/05/28 12:28:07;;;;;;;5.60;4.10;;;;;;;;;;5078530;28;20200;-64
2023/05/28 12:30:35;;;;;;;5.20;4.00;;;;;;;;;;5076058;28;20208;-64
2023/05/28 12:33:04;;;;;;;13.40;4.30;;;;;;;;;;5074229;28;20283;-64
2023/05/28 12:35:32;;;;;;;5.20;3.97;;;;;;;;;;5078022;28;20703;-64
2023/05/28 12:38:00;;;;;;;6.63;4.60;;;;;;;;;;5078126;28;20212;-64
2023/05/28 12:40:30;;;;;;;4.97;4.07;;;;;;;;;;5077721;28;20261;-64
2023/05/28 12:42:58;;;;;;;6.93;4.17;;;;;;;;;;5078059;28;20249;-64
2023/05/28 12:45:26;;;;;;;4.77;4.00;;;;;;;;;;5077475;28;20240;-65
2023/05/28 12:47:54;;;;;;;5.37;3.83;;;;;;;;;;5077902;28;20296;-64
2023/05/28 12:50:23;;;;;;;6.37;4.57;;;;;;;;;;5078061;28;20205;-65
2023/05/28 12:52:51;;;;;;;6.60;4.37;;;;;;;;;;5077747;28;20230;-67
2023/05/28 12:55:19;;;;;;;8.47;4.53;;;;;;;;;;5077952;28;20331;-68
2023/05/28 12:57:49;;;;;;;4.97;4.10;;;;;;;;;;5077839;28;20612;-69
2023/05/28 13:00:17;;;;;;;4.37;3.60;;;;;;;;;;5078231;28;20240;-67
2023/05/28 13:02:46;;;;;;;5.83;4.07;;;;;;;;;;5057692;28;20277;-69
2023/05/28 13:05:14;;;;;;;4.47;3.93;;;;;;;;;;5055995;28;20316;-67
2023/05/28 13:07:42;;;;;;;6.67;3.90;;;;;;;;;;5048969;28;20211;-66
2023/05/28 13:10:11;;;;;;;6.17;3.60;;;;;;;;;;5033929;28;20205;-67
2023/05/28 13:12:42;;;;;;;3.97;3.53;;;;;;;;;;5041023;28;20217;-67
2023/05/28 13:15:12;;;;;;;6.97;4.73;;;;;;;;;;5057677;28;20294;-67
2023/05/28 13:17:40;;;;;;;5.83;3.63;;;;;;;;;;5045773;28;20236;-67
2023/05/28 13:20:10;;;;;;;6.17;4.90;;;;;;;;;;5035600;28;20264;-67
2023/05/28 13:22:40;;;;;;;7.30;4.63;;;;;;;;;;5046896;28;20681;-67
2023/05/28 13:25:09;;;;;;;4.83;4.20;;;;;;;;;;5057376;28;20323;-64
2023/05/28 13:27:37;;;;;;;5.50;4.13;;;;;;;;;;5039889;28;20206;-64
2023/05/28 13:30:05;;;;;;;6.50;4.27;;;;;;;;;;5037568;28;20627;-64
2023/05/28 13:32:35;;;;;;;4.50;3.73;;;;;;;;;;5037749;28;20250;-64
2023/05/28 13:35:03;;;;;;;5.13;3.87;;;;;;;;;;5037070;28;20655;-63
2023/05/28 13:37:33;;;;;;;6.03;3.60;;;;;;;;;;5037451;28;20317;-67
2023/05/28 13:40:07;;;;;;;4.77;3.93;;;;;;;;;;5036322;28;20300;-67
2023/05/28 13:42:35;;;;;;;5.97;4.10;;;;;;;;;;5036985;28;20291;-66
2023/05/28 13:45:04;;;;;;;5.80;4.45;;;;;;;;;;5037396;28;20204;-67
2023/05/28 13:47:32;;;;;;;4.37;3.97;;;;;;;;;;5037319;28;20213;-67
2023/05/28 13:50:03;;;;;;;5.17;3.87;;;;;;;;;;5038088;28;20247;-67
2023/05/28 13:52:31;;;;;;;4.88;3.78;;;;;;;;;;5041631;28;20219;-67
2023/05/28 13:54:59;;;;;;;4.25;3.67;;;;;;;;;;5040931;28;20231;-67
2023/05/28 13:57:28;;;;;;;4.93;3.95;;;;;;;;;;5041147;28;20666;-67
2023/05/28 13:59:56;;;;;;;5.20;3.53;;;;;;;;;;5041552;28;20214;-67
2023/05/28 14:02:24;;;;;;;4.22;3.28;;;;;;;;;;5075748;28;20242;-67
2023/05/28 14:04:52;;;;;;;4.25;3.08;;;;;;;;;;5081132;28;20229;-67
2023/05/28 14:07:22;;;;;;;5.53;3.53;;;;;;;;;;5081103;28;20206;-67
2023/05/28 14:09:50;;;;;;;5.65;3.45;;;;;;;;;;5080781;28;20550;-67
2023/05/28 14:12:18;;;;;;;7.50;4.07;;;;;;;;;;5081240;28;20207;-67
2023/05/28 14:14:49;;;;;;;5.15;3.53;;;;;;;;;;5081403;28;20212;-67
2023/05/28 14:17:18;;;;;;;5.72;3.05;;;;;;;;;;5081117;28;20236;-67
2023/05/28 14:19:46;;;;;;;4.15;3.15;;;;;;;;;;5080864;28;20697;-67
2023/05/28 14:22:15;;;;;;;4.72;3.13;;;;;;;;;;5081104;28;20217;-68
2023/05/28 14:24:45;;;;;;;8.70;3.88;;;;;;;;;;5080162;28;20700;-67
2023/05/28 14:27:13;;;;;;;6.15;3.53;;;;;;;;;;5080763;28;20285;-68
2023/05/28 14:29:41;;;;;;;5.57;3.47;;;;;;;;;;5080655;28;20237;-68
2023/05/28 14:32:09;;;;;;;4.78;3.53;;;;;;;;;;5078358;28;20206;-68
2023/05/28 14:34:38;;;;;;;3.67;3.28;;;;;;;;;;5071835;28;20205;-68
2023/05/28 14:37:06;;;;;;;5.80;3.47;;;;;;;;;;5079964;28;20224;-67
2023/05/28 14:39:34;;;;;;;7.72;4.00;;;;;;;;;;5069431;28;20607;-67
2023/05/28 14:42:05;;;;;;;4.25;3.35;;;;;;;;;;5080364;28;20653;-67
2023/05/28 14:44:33;;;;;;;3.55;3.17;;;;;;;;;;5080613;28;20233;-66
2023/05/28 14:47:01;;;;;;;5.05;3.30;;;;;;;;;;5080189;28;20227;-67
2023/05/28 14:49:30;;;;;;;3.70;2.80;;;;;;;;;;5080371;28;20578;-66
2023/05/28 14:51:58;;;;;;;6.10;2.67;;;;;;;;;;5080238;28;20209;-66